Hauptseite
METAR-TAF:

METAR-TAF

Flughäfen :

Militärflugplatz Woensdrecht

Woensdrecht, Niederlande

Breite: 51-27N, Länge: 004-20E, Höhe: 20 m

Beobachtung

Neuester Wetterbericht von vor 17 Minuten, um 03:55 UTC
Wind 6 kt aus Südwest, variierte zwischen Süd/Südwest und West
Temperatur 10°C
Luftfeuchtigkeit 93%
Luftdruck 1002 hPa
Sichtweite 10 km oder mehr
Leicht bewölkt in der Höhe von 6100 ft

METAR: EHWO 070355Z AUTO 23006KT 210V270 9999 FEW061 10/09 Q1002 BLU

Zeit: 06:12 (04:12 UTC)


TAF: fehlend

Wetterbeobachtungen und Prognosen von mehr als 4000 Flughäfen (METAR und TAF Bericht).

Die verfügbaren Stationen werden durch gelbe und rote Markierungen auf der Karte dargestellt.

Führen Sie die Maus auf sie, um den Namen der Station zu sehen.

Darauf klicken, um die Beobachtung von Wetterbeobachtungen und Prognosen zu sehen.

Um die Karte zu ändern : klicken Sie auf den grünen Tasten mit einem schwarzen Kreuz Zum Vergrößern, auf den grünen Button mit einem Gedankenstrich zu verkleinern, oder auf die grünen Pfeile für benachbarte Karten.


METAR-TAF: